Terminal Aerodrome Forecast
Issued by NWS

Home | Current Version | Previous Version | Text Only | Print | Product List | Glossary On
Versions: 1 2 3 4 5 6 7 8 9 10 11 12 13 14 15 16 17 18 19 20 21 22
000
FTUS44 KOUN 300524
TAFLAW
TAF
KLAW 300524Z 3006/3106 06006KT P6SM FEW060 BKN120
     FM301300 04005KT P6SM SCT120 BKN250
     FM301800 08005KT P6SM SCT060 BKN100 PROB30 3018/3024 P6SM TS
      BKN050CB
     FM310000 10004KT P6SM SCT120 BKN250=

USA.gov is the U.S. government's official web portal to all federal, state and local government web resources and services.